Time;durP1;ratioP1;P1;durP2;ratioP2;P2;SDS_P1;SDS_P2;PMS_P1;PMS_P2;Temp;Humidity;BMP_temperature;BMP_pressure;BME280_temperature;BME280_humidity;BME280_pressure;Samples;Min_cycle;Max_cycle;Signal;HPM_P1;HPM_P2
2021/11/05 00:00:54;;;;;;;28.15;19.15;;;5.60;99.90;;;;;;5033486;28;20120;-50
2021/11/05 00:03:21;;;;;;;27.20;18.50;;;5.60;99.90;;;;;;5037689;28;20511;-49
2021/11/05 00:05:48;;;;;;;25.70;20.40;;;5.70;99.90;;;;;;5025432;28;20042;-50
2021/11/05 00:08:15;;;;;;;23.05;17.38;;;5.80;99.90;;;;;;5023978;28;20475;-47
2021/11/05 00:10:43;;;;;;;24.35;17.55;;;5.80;99.90;;;;;;5028411;28;20445;-51
2021/11/05 00:13:10;;;;;;;20.77;16.38;;;5.90;99.90;;;;;;5027680;28;20050;-47
2021/11/05 00:15:37;;;;;;;23.23;16.63;;;5.90;99.90;;;;;;5021117;28;20045;-51
2021/11/05 00:18:04;;;;;;;20.08;15.98;;;6.00;99.90;;;;;;5023839;28;20400;-47
2021/11/05 00:20:30;;;;;;;22.60;15.80;;;6.00;99.90;;;;;;5010465;28;20531;-48
2021/11/05 00:22:57;;;;;;;17.48;13.68;;;6.00;99.90;;;;;;5000360;28;20137;-51
2021/11/05 00:25:23;;;;;;;19.55;14.38;;;6.00;99.90;;;;;;5021049;28;20096;-51
2021/11/05 00:27:50;;;;;;;19.50;15.48;;;6.00;99.90;;;;;;4998160;28;20519;-53
2021/11/05 00:30:17;;;;;;;20.90;14.02;;;6.00;99.90;;;;;;5027919;28;20466;-61
2021/11/05 00:32:43;;;;;;;20.23;13.52;;;6.00;99.90;;;;;;5023449;28;20077;-61
2021/11/05 00:35:14;;;;;;;19.80;13.10;;;6.00;99.90;;;;;;5029075;28;20496;-61
2021/11/05 00:37:41;;;;;;;15.75;12.48;;;6.10;99.90;;;;;;5030724;28;20058;-61
2021/11/05 00:40:09;;;;;;;15.88;11.98;;;6.00;99.90;;;;;;5014691;28;20099;-60
2021/11/05 00:42:36;;;;;;;18.45;13.15;;;6.00;99.90;;;;;;5013089;28;20396;-52
2021/11/05 00:45:03;;;;;;;15.88;11.73;;;6.00;99.90;;;;;;5012982;28;20046;-52
2021/11/05 00:47:29;;;;;;;15.65;11.13;;;6.00;99.90;;;;;;5028323;28;20045;-50
2021/11/05 00:49:55;;;;;;;13.40;11.60;;;6.00;99.90;;;;;;5026073;28;20049;-51
2021/11/05 00:52:21;;;;;;;15.82;10.95;;;6.00;99.90;;;;;;5026080;28;20463;-49
2021/11/05 00:54:47;;;;;;;16.30;10.55;;;6.10;99.90;;;;;;5024764;28;20129;-50
2021/11/05 00:57:13;;;;;;;14.65;9.88;;;6.10;99.90;;;;;;5026686;28;20124;-53
2021/11/05 00:59:40;;;;;;;17.83;10.27;;;6.10;99.90;;;;;;5019984;28;20084;-49
2021/11/05 01:02:08;;;;;;;14.18;10.18;;;6.20;99.90;;;;;;5040385;28;20108;-48
2021/11/05 01:04:34;;;;;;;14.23;9.27;;;6.30;99.90;;;;;;5021830;28;20041;-52
2021/11/05 01:07:00;;;;;;;15.38;9.18;;;6.30;99.90;;;;;;5024611;28;20196;-48
2021/11/05 01:09:26;;;;;;;15.05;9.30;;;6.30;99.90;;;;;;5024367;28;20072;-49
2021/11/05 01:11:53;;;;;;;13.70;9.13;;;6.40;99.90;;;;;;5021530;28;20456;-50
2021/11/05 01:14:19;;;;;;;16.48;9.70;;;6.40;99.90;;;;;;5020447;28;20168;-48
2021/11/05 01:16:45;;;;;;;11.80;8.45;;;6.40;99.90;;;;;;5011328;28;20168;-51
2021/11/05 01:19:11;;;;;;;15.40;9.90;;;6.50;99.90;;;;;;5025826;28;20124;-51
2021/11/05 01:21:37;;;;;;;14.18;8.20;;;6.40;99.90;;;;;;5021184;28;20484;-49
2021/11/05 01:24:04;;;;;;;16.85;9.25;;;6.50;99.90;;;;;;5023557;28;20044;-52
2021/11/05 01:26:30;;;;;;;14.00;7.82;;;6.40;99.90;;;;;;5023884;28;20497;-48
2021/11/05 01:28:56;;;;;;;11.15;7.60;;;6.50;99.90;;;;;;4999269;28;20385;-50
2021/11/05 01:31:23;;;;;;;10.25;6.55;;;6.40;99.90;;;;;;5038086;28;20053;-48
2021/11/05 01:33:50;;;;;;;10.32;6.35;;;6.40;99.90;;;;;;5023121;28;20119;-50
2021/11/05 01:36:16;;;;;;;13.45;6.35;;;6.30;99.90;;;;;;5022216;28;20042;-51
2021/11/05 01:38:42;;;;;;;10.20;6.20;;;6.30;99.90;;;;;;5026481;28;20060;-51
2021/11/05 01:41:08;;;;;;;12.07;6.10;;;6.30;99.90;;;;;;5025943;28;20045;-50
2021/11/05 01:43:35;;;;;;;10.82;6.45;;;6.20;99.90;;;;;;5021128;28;20049;-49
2021/11/05 01:46:01;;;;;;;7.60;4.95;;;6.20;99.90;;;;;;5010392;28;20069;-49
2021/11/05 01:48:27;;;;;;;11.48;5.28;;;6.20;99.90;;;;;;5010179;28;20463;-47
2021/11/05 01:50:54;;;;;;;11.18;5.60;;;6.20;99.90;;;;;;5009600;28;20046;-46
2021/11/05 01:53:21;;;;;;;7.15;5.00;;;6.10;99.90;;;;;;5024118;28;20112;-46
2021/11/05 01:55:47;;;;;;;9.23;5.10;;;6.10;99.90;;;;;;5022911;28;20049;-47
2021/11/05 01:58:13;;;;;;;12.45;5.55;;;6.10;99.90;;;;;;5024017;28;20046;-60
2021/11/05 02:00:40;;;;;;;9.48;6.07;;;6.00;99.90;;;;;;5022657;28;20065;-60
2021/11/05 02:03:06;;;;;;;7.97;5.00;;;6.00;99.90;;;;;;5013198;28;20439;-50
2021/11/05 02:05:32;;;;;;;11.15;5.15;;;6.00;99.90;;;;;;5011112;28;20045;-48
2021/11/05 02:08:01;;;;;;;16.45;5.68;;;6.00;99.90;;;;;;5039245;28;20049;-46
2021/11/05 02:10:28;;;;;;;8.95;5.60;;;6.00;99.90;;;;;;5024140;28;20038;-49
2021/11/05 02:12:55;;;;;;;9.77;4.50;;;5.90;99.90;;;;;;5025539;28;21427;-60
2021/11/05 02:15:22;;;;;;;11.80;5.78;;;5.90;99.90;;;;;;5017618;28;20053;-60
2021/11/05 02:17:48;;;;;;;9.82;5.07;;;5.90;99.90;;;;;;5021804;28;20081;-51
2021/11/05 02:20:17;;;;;;;9.75;4.85;;;5.90;99.90;;;;;;5022987;28;20528;-51
2021/11/05 02:22:43;;;;;;;8.75;4.63;;;5.90;99.90;;;;;;5010806;28;20042;-47
2021/11/05 02:25:10;;;;;;;10.13;4.65;;;5.90;99.90;;;;;;5008311;28;20041;-63
2021/11/05 02:27:37;;;;;;;14.23;5.10;;;5.90;99.90;;;;;;5025804;28;20123;-60
2021/11/05 02:30:08;;;;;;;12.27;5.22;;;5.90;99.90;;;;;;5023635;28;20053;-60
2021/11/05 02:32:35;;;;;;;8.98;4.35;;;5.90;99.90;;;;;;5022798;28;20041;-60
2021/11/05 02:35:02;;;;;;;9.02;4.72;;;5.80;99.90;;;;;;5024359;28;20435;-59
2021/11/05 02:37:28;;;;;;;11.55;5.05;;;5.80;99.90;;;;;;5017473;28;20072;-61
2021/11/05 02:39:55;;;;;;;11.90;4.45;;;5.80;99.90;;;;;;5020800;28;20529;-61
2021/11/05 02:42:21;;;;;;;9.00;4.63;;;5.90;99.90;;;;;;5023704;28;20501;-63
2021/11/05 02:44:48;;;;;;;8.23;4.10;;;5.80;99.90;;;;;;5012156;28;20112;-61
2021/11/05 02:47:15;;;;;;;10.52;4.32;;;5.80;99.90;;;;;;5024294;28;20041;-61
2021/11/05 02:49:41;;;;;;;8.82;4.55;;;5.80;99.90;;;;;;5022273;28;20045;-61
2021/11/05 02:52:07;;;;;;;11.70;3.90;;;5.80;99.90;;;;;;5024557;28;20073;-51
2021/11/05 02:54:33;;;;;;;8.38;4.10;;;5.80;99.90;;;;;;5022973;28;20041;-61
2021/11/05 02:56:59;;;;;;;8.90;4.15;;;5.80;99.90;;;;;;5024632;28;20475;-50
2021/11/05 02:59:25;;;;;;;7.10;4.07;;;5.80;99.90;;;;;;5001537;28;20054;-49
2021/11/05 03:01:51;;;;;;;10.43;4.20;;;5.80;99.90;;;;;;5018839;28;20053;-48
2021/11/05 03:04:21;;;;;;;9.70;4.38;;;5.80;99.90;;;;;;5019195;28;20050;-61
2021/11/05 03:06:47;;;;;;;10.80;4.10;;;5.80;99.90;;;;;;5024742;28;20041;-62
2021/11/05 03:09:17;;;;;;;11.13;4.05;;;5.80;99.90;;;;;;5036725;28;20127;-61
2021/11/05 03:11:45;;;;;;;8.80;4.32;;;5.80;99.90;;;;;;5021517;28;20095;-61
2021/11/05 03:14:13;;;;;;;10.93;4.00;;;5.80;99.90;;;;;;5024068;28;20072;-61
2021/11/05 03:16:40;;;;;;;10.38;3.80;;;5.80;99.90;;;;;;5023556;28;20041;-61
2021/11/05 03:19:08;;;;;;;8.25;3.88;;;5.80;99.90;;;;;;5038649;28;20049;-48
2021/11/05 03:21:35;;;;;;;10.65;4.15;;;5.80;99.90;;;;;;5023056;28;20042;-61
2021/11/05 03:24:01;;;;;;;9.23;4.00;;;5.80;99.90;;;;;;5034043;28;20562;-49
2021/11/05 03:26:27;;;;;;;10.52;4.68;;;5.80;99.90;;;;;;5025606;28;20124;-61
2021/11/05 03:28:53;;;;;;;12.50;4.32;;;5.90;99.90;;;;;;5028957;28;20087;-61
2021/11/05 03:31:19;;;;;;;11.88;4.22;;;5.90;99.90;;;;;;5023289;28;20076;-60
2021/11/05 03:33:45;;;;;;;12.20;4.47;;;5.90;99.90;;;;;;5027458;28;20041;-61
2021/11/05 03:36:11;;;;;;;10.80;4.07;;;6.00;99.90;;;;;;5008456;28;20048;-61
2021/11/05 03:38:37;;;;;;;13.27;3.92;;;6.00;99.90;;;;;;5025651;28;20057;-60
2021/11/05 03:41:03;;;;;;;7.38;3.40;;;6.10;99.90;;;;;;5024093;28;20044;-61
2021/11/05 03:43:30;;;;;;;8.20;3.40;;;6.10;99.90;;;;;;5042414;28;20164;-46
2021/11/05 03:45:56;;;;;;;9.55;3.60;;;6.20;99.90;;;;;;5028187;28;20038;-49
2021/11/05 03:48:22;;;;;;;6.82;2.92;;;6.20;99.90;;;;;;5002254;28;20045;-49
2021/11/05 03:50:48;;;;;;;8.48;3.50;;;6.20;99.90;;;;;;5025483;28;20057;-47
2021/11/05 03:53:14;;;;;;;7.80;3.63;;;6.40;99.90;;;;;;5026296;28;20049;-48
2021/11/05 03:55:41;;;;;;;8.30;3.28;;;6.40;99.90;;;;;;5043314;28;20042;-50
2021/11/05 03:58:07;;;;;;;6.15;3.00;;;6.40;99.90;;;;;;5023355;28;20050;-48
2021/11/05 04:00:33;;;;;;;10.93;3.58;;;6.50;99.90;;;;;;5024869;28;20068;-50
2021/11/05 04:02:59;;;;;;;12.02;3.30;;;6.50;99.90;;;;;;5025956;28;20049;-48
2021/11/05 04:05:25;;;;;;;8.98;2.60;;;6.60;99.90;;;;;;5025352;28;20042;-50
2021/11/05 04:07:51;;;;;;;8.43;2.90;;;6.60;99.90;;;;;;5010200;28;20068;-51
2021/11/05 04:10:17;;;;;;;10.60;3.25;;;6.60;99.90;;;;;;5025983;28;20041;-61
2021/11/05 04:12:44;;;;;;;6.57;2.72;;;6.70;99.90;;;;;;5020975;28;20049;-61
2021/11/05 04:15:10;;;;;;;9.95;2.67;;;6.60;99.90;;;;;;5028043;28;20088;-60
2021/11/05 04:17:38;;;;;;;8.07;2.38;;;6.60;99.90;;;;;;5024946;28;20056;-61
2021/11/05 04:20:04;;;;;;;9.77;2.45;;;6.60;99.90;;;;;;5023507;28;20092;-50
2021/11/05 04:22:31;;;;;;;9.90;2.15;;;6.50;99.90;;;;;;5024263;28;20048;-47
2021/11/05 04:24:57;;;;;;;12.38;2.67;;;6.40;99.90;;;;;;5025638;28;20033;-49
2021/11/05 04:27:23;;;;;;;7.55;2.28;;;6.40;99.90;;;;;;5027122;28;20095;-47
2021/11/05 04:29:49;;;;;;;7.05;2.17;;;6.30;99.90;;;;;;5025407;28;20053;-47
2021/11/05 04:32:15;;;;;;;10.23;2.63;;;6.30;99.90;;;;;;5026621;28;20206;-50
2021/11/05 04:34:42;;;;;;;8.18;2.45;;;6.20;99.90;;;;;;5026965;28;20475;-50
2021/11/05 04:37:08;;;;;;;7.93;2.58;;;6.10;99.90;;;;;;5008894;28;20128;-60
2021/11/05 04:39:34;;;;;;;8.27;2.50;;;6.10;99.90;;;;;;5025665;28;20038;-60
2021/11/05 04:42:01;;;;;;;8.68;2.85;;;6.10;99.90;;;;;;5025807;28;20053;-62
2021/11/05 04:44:29;;;;;;;9.02;2.72;;;6.10;99.90;;;;;;5025691;28;20276;-62
2021/11/05 04:46:55;;;;;;;8.30;2.75;;;6.10;99.90;;;;;;5009271;28;20455;-61
2021/11/05 04:49:23;;;;;;;11.02;3.08;;;6.10;99.90;;;;;;5013345;28;20131;-47
2021/11/05 04:51:50;;;;;;;10.15;3.30;;;6.20;99.90;;;;;;5025431;28;20041;-61
2021/11/05 04:54:17;;;;;;;9.35;3.03;;;6.30;99.90;;;;;;5024742;28;20504;-62
2021/11/05 04:56:43;;;;;;;10.55;3.72;;;6.40;99.90;;;;;;5025170;28;20088;-62
2021/11/05 04:59:10;;;;;;;11.88;3.53;;;6.40;99.90;;;;;;5025993;28;20046;-62
2021/11/05 05:01:37;;;;;;;9.57;2.80;;;6.50;99.90;;;;;;5002653;28;20397;-62
2021/11/05 05:04:04;;;;;;;11.40;3.00;;;6.50;99.90;;;;;;5024068;28;20052;-48
2021/11/05 05:06:30;;;;;;;11.70;3.17;;;6.50;99.90;;;;;;5024216;28;20511;-49
2021/11/05 05:08:56;;;;;;;10.10;3.30;;;6.60;99.90;;;;;;5025586;28;20045;-60
2021/11/05 05:11:22;;;;;;;13.00;3.38;;;6.60;99.90;;;;;;5024527;28;20045;-62
2021/11/05 05:13:48;;;;;;;13.60;3.15;;;6.70;99.90;;;;;;5023484;28;20053;-62
2021/11/05 05:16:14;;;;;;;10.05;2.92;;;6.80;99.90;;;;;;5025435;28;20041;-49
2021/11/05 05:18:41;;;;;;;14.73;3.70;;;6.80;99.90;;;;;;5024304;28;20056;-51
2021/11/05 05:21:07;;;;;;;10.80;3.25;;;6.80;99.90;;;;;;5026603;28;20045;-50
2021/11/05 05:23:34;;;;;;;10.48;3.10;;;6.80;99.90;;;;;;4995626;28;20041;-48
2021/11/05 05:26:00;;;;;;;10.25;3.42;;;6.80;99.90;;;;;;5022571;28;20045;-48
2021/11/05 05:28:26;;;;;;;9.10;3.17;;;6.80;99.90;;;;;;5041360;28;20041;-62
2021/11/05 05:30:53;;;;;;;9.52;2.70;;;6.80;99.90;;;;;;5006177;28;20128;-61
2021/11/05 05:33:19;;;;;;;9.18;2.60;;;6.80;99.90;;;;;;5024846;28;20049;-62
2021/11/05 05:35:45;;;;;;;7.90;2.80;;;6.70;99.90;;;;;;5025896;28;20099;-62
2021/11/05 05:38:12;;;;;;;11.32;3.08;;;6.70;99.90;;;;;;5016303;28;20049;-62
2021/11/05 05:40:38;;;;;;;10.80;2.90;;;6.60;99.90;;;;;;5024634;28;20078;-62
2021/11/05 05:43:04;;;;;;;12.77;2.50;;;6.60;99.90;;;;;;5021313;28;20033;-62
2021/11/05 05:45:30;;;;;;;11.20;3.08;;;6.50;99.90;;;;;;5025193;28;20045;-62
2021/11/05 05:47:56;;;;;;;7.13;2.58;;;6.50;99.90;;;;;;5020415;28;20792;-52
2021/11/05 05:50:22;;;;;;;8.80;2.50;;;6.50;99.90;;;;;;5025138;28;20068;-51
2021/11/05 05:52:48;;;;;;;9.02;2.78;;;6.50;99.90;;;;;;5021968;28;20432;-50
2021/11/05 05:55:15;;;;;;;11.82;3.17;;;6.60;99.90;;;;;;5036357;28;20525;-51
2021/11/05 05:57:42;;;;;;;7.38;2.78;;;6.70;99.90;;;;;;5022831;28;20049;-48
2021/11/05 06:00:11;;;;;;;9.93;2.65;;;6.70;99.90;;;;;;5022208;28;20034;-48
2021/11/05 06:02:38;;;;;;;9.57;3.22;;;6.80;99.90;;;;;;5025440;28;20045;-50
2021/11/05 06:05:04;;;;;;;9.70;2.95;;;6.80;99.90;;;;;;5024606;28;20055;-48
2021/11/05 06:07:30;;;;;;;10.40;2.55;;;6.80;99.90;;;;;;5023179;28;20092;-62
2021/11/05 06:09:56;;;;;;;6.55;2.83;;;6.80;99.90;;;;;;5003285;28;20061;-62
2021/11/05 06:12:23;;;;;;;9.32;2.75;;;6.80;99.90;;;;;;5020258;28;20046;-62
2021/11/05 06:14:49;;;;;;;6.10;2.03;;;6.70;99.90;;;;;;5025252;28;20045;-62
2021/11/05 06:17:15;;;;;;;7.78;2.65;;;6.70;99.90;;;;;;5012074;28;20092;-62
2021/11/05 06:19:42;;;;;;;10.23;2.58;;;6.70;99.90;;;;;;5021846;28;20497;-62
2021/11/05 06:22:09;;;;;;;9.95;2.92;;;6.60;99.90;;;;;;5029931;28;20099;-61
2021/11/05 06:24:35;;;;;;;6.40;3.67;;;6.60;99.90;;;;;;5028825;28;20049;-60
2021/11/05 06:27:01;;;;;;;8.45;2.78;;;6.60;99.90;;;;;;5028722;28;20317;-60
2021/11/05 06:29:27;;;;;;;7.25;2.72;;;6.70;99.90;;;;;;5012885;28;20100;-59
2021/11/05 06:31:53;;;;;;;10.38;2.47;;;6.60;99.90;;;;;;5030589;28;20589;-58
2021/11/05 06:34:19;;;;;;;6.80;2.33;;;6.50;99.90;;;;;;5029368;28;20156;-58
2021/11/05 06:36:45;;;;;;;8.27;2.80;;;6.50;99.90;;;;;;5026128;28;20229;-58
2021/11/05 06:39:12;;;;;;;8.80;3.05;;;6.50;99.90;;;;;;5025017;28;20124;-58
2021/11/05 06:41:38;;;;;;;7.97;3.13;;;6.50;99.90;;;;;;5030207;28;20121;-58
2021/11/05 06:44:04;;;;;;;11.68;3.58;;;6.50;99.90;;;;;;5023835;28;20393;-58
2021/11/05 06:46:30;;;;;;;9.98;3.10;;;6.50;99.90;;;;;;5010374;28;20052;-58
2021/11/05 06:48:56;;;;;;;10.23;3.00;;;6.50;99.90;;;;;;5028887;28;20108;-58
2021/11/05 06:51:23;;;;;;;10.40;3.47;;;6.50;99.90;;;;;;5030559;28;20065;-58
2021/11/05 06:53:49;;;;;;;7.55;2.78;;;6.50;99.90;;;;;;5029831;28;20037;-58
2021/11/05 06:56:16;;;;;;;13.10;3.20;;;6.50;99.90;;;;;;5027551;28;20103;-58
2021/11/05 06:58:44;;;;;;;12.10;2.90;;;6.60;99.90;;;;;;5017308;28;20558;-58
2021/11/05 07:01:11;;;;;;;13.15;2.58;;;6.60;99.90;;;;;;5019068;28;20535;-58
2021/11/05 07:03:37;;;;;;;8.63;3.30;;;6.60;99.90;;;;;;5009478;28;20104;-58
2021/11/05 07:06:04;;;;;;;9.95;3.47;;;6.60;99.90;;;;;;5011489;28;20065;-58
2021/11/05 07:08:31;;;;;;;7.95;2.85;;;6.70;99.90;;;;;;5029345;28;20060;-50
2021/11/05 07:10:58;;;;;;;10.40;3.28;;;6.80;99.90;;;;;;5024966;28;20046;-58
2021/11/05 07:13:24;;;;;;;11.68;3.00;;;6.70;99.90;;;;;;5026646;28;20511;-64
2021/11/05 07:15:51;;;;;;;8.48;2.65;;;6.70;99.90;;;;;;5029322;28;20041;-53
2021/11/05 07:18:17;;;;;;;11.30;3.15;;;6.70;99.90;;;;;;5024338;28;20370;-53
2021/11/05 07:20:44;;;;;;;9.73;2.70;;;6.70;99.90;;;;;;5029304;28;20052;-52
2021/11/05 07:23:11;;;;;;;12.48;2.92;;;6.80;99.90;;;;;;5029826;28;20046;-53
2021/11/05 07:25:38;;;;;;;11.60;2.63;;;6.70;99.90;;;;;;5027486;28;20037;-53
2021/11/05 07:28:04;;;;;;;7.57;2.80;;;6.70;99.90;;;;;;5027838;28;20052;-58
2021/11/05 07:30:31;;;;;;;10.07;2.67;;;6.60;99.90;;;;;;5009172;28;20053;-58
2021/11/05 07:32:57;;;;;;;8.20;2.80;;;6.60;99.90;;;;;;5028130;28;20108;-58
2021/11/05 07:35:23;;;;;;;11.18;2.70;;;6.60;99.90;;;;;;5026722;28;20065;-60
2021/11/05 07:37:51;;;;;;;8.65;2.88;;;6.60;99.90;;;;;;5025178;28;20396;-58
2021/11/05 07:40:18;;;;;;;8.43;3.35;;;6.70;99.90;;;;;;5027785;28;20522;-58
2021/11/05 07:42:46;;;;;;;10.52;2.53;;;6.60;99.90;;;;;;5028701;28;20073;-62
2021/11/05 07:45:14;;;;;;;18.02;9.30;;;6.70;99.90;;;;;;5027851;28;20116;-63
2021/11/05 07:47:42;;;;;;;7.50;2.80;;;6.60;99.90;;;;;;5026181;28;20041;-55
2021/11/05 07:50:10;;;;;;;7.63;2.53;;;6.60;99.90;;;;;;5026269;28;20042;-59
2021/11/05 07:52:37;;;;;;;10.85;2.78;;;6.60;99.90;;;;;;5043822;28;20056;-60
2021/11/05 07:55:06;;;;;;;10.80;2.17;;;6.60;99.90;;;;;;5027906;28;20045;-59
2021/11/05 07:57:32;;;;;;;10.85;2.60;;;6.70;99.90;;;;;;5030851;28;20084;-59
2021/11/05 07:59:58;;;;;;;8.95;2.80;;;6.80;99.90;;;;;;5027600;28;20049;-58
2021/11/05 08:02:25;;;;;;;12.40;3.03;;;6.90;99.90;;;;;;5027041;28;20132;-59
2021/11/05 08:04:51;;;;;;;12.32;4.65;;;6.90;99.90;;;;;;5018907;28;20484;-59
2021/11/05 08:07:21;;;;;;;10.75;2.85;;;7.00;99.90;;;;;;5025583;28;20049;-59
2021/11/05 08:09:47;;;;;;;9.43;2.40;;;7.10;99.90;;;;;;5044587;28;20037;-59
2021/11/05 08:12:14;;;;;;;10.15;2.38;;;7.20;99.90;;;;;;5029475;28;20045;-59
2021/11/05 08:14:40;;;;;;;7.05;1.92;;;7.40;99.90;;;;;;5032359;28;20127;-59
2021/11/05 08:17:08;;;;;;;7.22;2.42;;;7.60;99.90;;;;;;5020944;28;20085;-59
2021/11/05 08:19:34;;;;;;;10.63;2.45;;;7.80;99.90;;;;;;5025230;28;20037;-59
2021/11/05 08:22:00;;;;;;;9.88;2.40;;;8.50;99.90;;;;;;5032728;28;20428;-59
2021/11/05 08:24:27;;;;;;;8.10;1.90;;;8.90;99.90;;;;;;5032004;28;20516;-59
2021/11/05 08:26:54;;;;;;;8.07;2.28;;;9.30;99.90;;;;;;5030585;28;20120;-58
2021/11/05 08:29:20;;;;;;;5.90;1.98;;;9.40;99.90;;;;;;5031213;28;20452;-59
2021/11/05 08:31:46;;;;;;;6.20;1.98;;;9.60;99.90;;;;;;5033013;28;20040;-59
2021/11/05 08:34:13;;;;;;;7.57;1.73;;;9.80;99.90;;;;;;5035259;28;20045;-59
2021/11/05 08:36:41;;;;;;;8.48;1.95;;;9.90;99.90;;;;;;5030905;28;20053;-59
2021/11/05 08:39:08;;;;;;;10.43;2.25;;;9.90;99.90;;;;;;5029089;28;20060;-56
2021/11/05 08:41:35;;;;;;;8.38;1.85;;;9.90;99.90;;;;;;5030087;28;20128;-55
2021/11/05 08:44:01;;;;;;;147.68;130.27;;;9.80;99.90;;;;;;5029035;28;20045;-55
2021/11/05 08:46:29;;;;;;;50.22;38.92;;;9.90;99.90;;;;;;5046832;28;20115;-58
2021/11/05 08:49:02;;;;;;;140.88;125.13;;;9.90;99.90;;;;;;5027726;28;20061;-54
2021/11/05 08:51:29;;;;;;;52.33;39.17;;;9.80;99.90;;;;;;5013300;28;20061;-62
2021/11/05 08:53:55;;;;;;;12.75;2.67;;;9.90;99.90;;;;;;5026579;28;20049;-64
2021/11/05 08:56:21;;;;;;;15.80;10.13;;;9.90;99.90;;;;;;5030088;28;20099;-60
2021/11/05 08:58:48;;;;;;;26.05;17.80;;;10.00;99.90;;;;;;5029295;28;20041;-61
2021/11/05 09:01:15;;;;;;;9.93;4.50;;;10.00;99.90;;;;;;5028489;28;20029;-62
2021/11/05 09:03:42;;;;;;;7.50;4.43;;;10.00;99.90;;;;;;5031190;28;20048;-53
2021/11/05 09:06:09;;;;;;;9.27;2.10;;;10.00;99.90;;;;;;5032037;28;20507;-55
2021/11/05 09:08:38;;;;;;;7.22;2.15;;;10.10;99.90;;;;;;5031627;28;20048;-54
2021/11/05 09:11:06;;;;;;;5.35;2.60;;;10.20;99.90;;;;;;5036694;28;20037;-52
2021/11/05 09:13:35;;;;;;;8.48;3.97;;;10.30;99.90;;;;;;5029237;28;20045;-55
2021/11/05 09:16:02;;;;;;;8.30;1.75;;;10.40;99.90;;;;;;5030925;28;20146;-52
2021/11/05 09:18:29;;;;;;;5.10;1.52;;;10.40;99.90;;;;;;5028072;28;20067;-51
2021/11/05 09:20:55;;;;;;;7.30;1.70;;;10.50;99.90;;;;;;5029491;28;20045;-63
2021/11/05 09:23:24;;;;;;;7.60;1.90;;;10.70;99.90;;;;;;5012327;28;20124;-62
2021/11/05 09:25:51;;;;;;;3.90;1.45;;;10.70;99.90;;;;;;5030222;28;20049;-61
2021/11/05 09:28:17;;;;;;;5.10;1.35;;;10.70;99.90;;;;;;5031873;28;20047;-47
2021/11/05 09:30:43;;;;;;;4.18;1.67;;;10.50;99.90;;;;;;5031175;28;20089;-51
2021/11/05 09:33:09;;;;;;;8.55;1.73;;;10.50;99.90;;;;;;5031553;28;20057;-50
2021/11/05 09:35:36;;;;;;;5.90;1.60;;;10.50;99.90;;;;;;5030859;28;20427;-50
2021/11/05 09:38:02;;;;;;;6.30;1.73;;;10.70;99.90;;;;;;5030739;28;20115;-51
2021/11/05 09:40:28;;;;;;;4.70;1.60;;;11.00;99.90;;;;;;5031251;28;20057;-51
2021/11/05 09:42:56;;;;;;;4.68;1.63;;;11.30;99.90;;;;;;5013053;28;20046;-61
2021/11/05 09:45:24;;;;;;;6.32;1.58;;;11.30;99.90;;;;;;5031294;28;20045;-61
2021/11/05 09:47:50;;;;;;;8.43;1.48;;;11.30;99.90;;;;;;5031265;28;20052;-61
2021/11/05 09:50:22;;;;;;;6.65;1.52;;;11.20;99.90;;;;;;5029562;28;20488;-62
2021/11/05 09:52:49;;;;;;;4.78;1.20;;;11.20;99.90;;;;;;5046680;28;20045;-61
2021/11/05 09:55:17;;;;;;;4.38;1.17;;;11.20;99.90;;;;;;5029856;28;20492;-61
2021/11/05 09:57:43;;;;;;;6.38;1.10;;;11.20;99.90;;;;;;5030017;28;20437;-47
2021/11/05 10:00:12;;;;;;;4.72;1.10;;;11.30;99.90;;;;;;5029439;28;20051;-49
2021/11/05 10:02:43;;;;;;;6.53;1.52;;;11.50;99.90;;;;;;5031600;28;20041;-47
2021/11/05 10:05:11;;;;;;;5.38;1.00;;;11.70;99.90;;;;;;5014900;28;20570;-62
2021/11/05 10:07:49;;;;;;;4.30;0.85;;;11.90;99.90;;;;;;5045233;28;20052;-62
2021/11/05 10:10:22;;;;;;;4.75;0.70;;;12.20;99.90;;;;;;5031222;28;20474;-62
2021/11/05 10:13:01;;;;;;;4.68;0.80;;;12.20;99.90;;;;;;5029879;28;20408;-62
2021/11/05 10:15:34;;;;;;;4.50;0.90;;;12.10;99.90;;;;;;5028689;28;20049;-61
2021/11/05 10:18:14;;;;;;;3.75;0.80;;;12.10;99.90;;;;;;5044983;28;20045;-62
2021/11/05 10:20:42;;;;;;;2.38;0.80;;;12.00;99.90;;;;;;5028694;28;20051;-62
2021/11/05 10:23:08;;;;;;;2.15;0.70;;;12.60;99.90;;;;;;5028140;28;20034;-63
2021/11/05 10:25:48;;;;;;;2.92;0.85;;;13.90;99.90;;;;;;5030770;28;20050;-63
2021/11/05 10:28:18;;;;;;;5.05;1.33;;;15.20;99.90;;;;;;5030063;28;20446;-61
2021/11/05 10:30:44;;;;;;;6.32;1.48;;;16.30;99.90;;;;;;5023722;28;20586;-61
2021/11/05 10:33:15;;;;;;;3.92;1.20;;;17.20;99.90;;;;;;5003362;28;20103;-62
2021/11/05 10:35:44;;;;;;;3.10;1.38;;;17.80;99.90;;;;;;5026564;28;20056;-62
2021/11/05 10:38:13;;;;;;;2.30;0.80;;;18.30;99.90;;;;;;5027549;28;20057;-62
2021/11/05 10:40:52;;;;;;;3.78;0.88;;;18.70;99.90;;;;;;5030397;28;20144;-62
2021/11/05 10:43:29;;;;;;;3.30;1.00;;;19.00;99.90;;;;;;5044328;28;20033;-62
2021/11/05 10:45:55;;;;;;;3.55;1.13;;;19.80;99.90;;;;;;5030131;28;20496;-62
2021/11/05 10:48:23;;;;;;;3.05;1.08;;;19.90;99.90;;;;;;5029827;28;20120;-62
2021/11/05 10:50:55;;;;;;;4.75;1.30;;;19.70;99.90;;;;;;5028150;28;20053;-62
2021/11/05 10:53:24;;;;;;;5.47;1.00;;;20.10;96.70;;;;;;5029616;28;20080;-62
2021/11/05 10:55:56;;;;;;;3.67;0.85;;;20.60;93.90;;;;;;5030026;28;20041;-62
2021/11/05 10:58:32;;;;;;;3.50;0.90;;;20.80;80.60;;;;;;5029892;28;20045;-62
2021/11/05 11:01:07;;;;;;;6.03;3.20;;;20.50;72.80;;;;;;5041683;28;20046;-63
2021/11/05 11:03:47;;;;;;;3.40;1.35;;;20.20;82.40;;;;;;5010789;28;20042;-62
2021/11/05 11:06:18;;;;;;;6.13;3.60;;;19.70;86.20;;;;;;5043899;28;20116;-62
2021/11/05 11:08:49;;;;;;;4.68;1.73;;;18.80;92.00;;;;;;5024141;28;20048;-61
2021/11/05 11:11:35;;;;;;;5.00;1.50;;;18.50;92.80;;;;;;5027071;28;20072;-62
2021/11/05 11:14:03;;;;;;;3.50;1.08;;;17.70;94.60;;;;;;5024944;28;20033;-62
2021/11/05 11:16:34;;;;;;;7.85;4.07;;;17.10;99.10;;;;;;5035120;28;20053;-62
2021/11/05 11:19:06;;;;;;;5.20;2.33;;;17.10;99.90;;;;;;5027245;28;20065;-62
2021/11/05 11:21:41;;;;;;;5.97;3.00;;;16.80;99.90;;;;;;5009409;28;20045;-60
2021/11/05 11:24:10;;;;;;;7.95;5.18;;;17.10;99.90;;;;;;5030601;28;20499;-60
2021/11/05 11:26:38;;;;;;;11.43;8.02;;;16.70;99.90;;;;;;5037440;28;20044;-60
2021/11/05 11:29:07;;;;;;;10.48;7.25;;;16.30;99.90;;;;;;5021934;28;20634;-61
2021/11/05 11:31:36;;;;;;;3.38;1.00;;;15.60;99.90;;;;;;5025497;28;20049;-60
2021/11/05 11:34:04;;;;;;;3.30;0.85;;;15.00;99.90;;;;;;5028076;28;20056;-60
2021/11/05 11:36:33;;;;;;;4.90;2.35;;;14.60;99.90;;;;;;5026796;28;20149;-59
2021/11/05 11:39:00;;;;;;;4.20;0.85;;;14.20;99.90;;;;;;5027152;28;20057;-60
2021/11/05 11:41:27;;;;;;;2.35;0.73;;;13.80;99.90;;;;;;5028669;28;20397;-60
2021/11/05 11:43:54;;;;;;;4.22;1.05;;;13.60;99.90;;;;;;5028171;28;20042;-60
2021/11/05 11:46:21;;;;;;;4.32;0.80;;;13.50;99.90;;;;;;5031604;28;20046;-55
2021/11/05 11:48:51;;;;;;;2.72;1.02;;;13.50;99.90;;;;;;5022601;28;20579;-60
2021/11/05 11:51:20;;;;;;;5.55;1.10;;;13.50;99.90;;;;;;5029080;28;20045;-60
2021/11/05 11:53:47;;;;;;;6.13;2.42;;;13.40;99.90;;;;;;5036722;28;20049;-61
2021/11/05 11:56:26;;;;;;;2.92;0.88;;;13.30;99.90;;;;;;5032503;28;20049;-61
2021/11/05 11:59:00;;;;;;;3.45;1.20;;;13.30;99.90;;;;;;5029440;28;20136;-61
2021/11/05 12:01:30;;;;;;;5.68;1.42;;;13.70;99.90;;;;;;5034463;28;20046;-57
2021/11/05 12:04:05;;;;;;;3.40;0.75;;;14.70;99.90;;;;;;5033316;28;20064;-57
2021/11/05 12:06:47;;;;;;;5.45;0.90;;;15.60;99.90;;;;;;5029276;28;20041;-58
2021/11/05 12:09:24;;;;;;;10.35;5.80;;;16.70;99.90;;;;;;5024252;28;20076;-57
2021/11/05 12:12:11;;;;;;;3.42;0.98;;;17.30;99.90;;;;;;5031493;28;20049;-57
2021/11/05 12:14:59;;;;;;;3.42;0.80;;;17.60;99.90;;;;;;5013702;28;20050;-57
2021/11/05 12:17:37;;;;;;;8.13;5.47;;;18.20;99.40;;;;;;5004970;28;20055;-61
2021/11/05 12:20:41;;;;;;;7.65;3.78;;;18.10;96.30;;;;;;5030567;28;20099;-61
2021/11/05 12:23:10;;;;;;;4.22;0.70;;;17.90;94.10;;;;;;5022963;28;20041;-60
2021/11/05 12:25:45;;;;;;;4.32;0.73;;;17.30;99.90;;;;;;5026734;28;20390;-61
2021/11/05 12:28:22;;;;;;;3.22;1.65;;;17.10;99.90;;;;;;5031053;28;20060;-61
2021/11/05 12:30:54;;;;;;;5.03;0.80;;;16.60;99.90;;;;;;5032675;28;20049;-61
2021/11/05 12:33:30;;;;;;;4.68;1.00;;;16.10;99.90;;;;;;5027751;28;20053;-57
2021/11/05 12:36:03;;;;;;;7.97;4.25;;;15.20;99.90;;;;;;5012713;28;20045;-61
2021/11/05 12:38:29;;;;;;;3.97;0.70;;;14.70;99.90;;;;;;5019497;28;20050;-61
2021/11/05 12:41:06;;;;;;;2.50;0.70;;;14.20;99.90;;;;;;5027346;28;20045;-61
2021/11/05 12:43:35;;;;;;;6.93;0.95;;;13.70;99.90;;;;;;5014431;28;20064;-61
2021/11/05 12:46:07;;;;;;;4.38;1.02;;;13.50;99.90;;;;;;5030658;28;20054;-57
2021/11/05 12:48:40;;;;;;;;;;;13.40;99.90;;;;;;5031329;28;20116;-58
2021/11/05 12:51:08;;;;;;;4.03;0.82;;;13.50;99.90;;;;;;5031082;28;19928;-58